Time;durP1;ratioP1;P1;durP2;ratioP2;P2;SDS_P1;SDS_P2;PMS_P1;PMS_P2;Temp;Humidity;BMP_temperature;BMP_pressure;BME280_temperature;BME280_humidity;BME280_pressure;Samples;Min_cycle;Max_cycle;Signal;HPM_P1;HPM_P2
2021/05/07 00:00:06;;;;;;;2.85;1.30;;;6.60;99.90;;;;;;2073603;28;20205;-73
2021/05/07 00:01:11;;;;;;;2.05;1.00;;;6.70;99.90;;;;;;2073608;28;20214;-73
2021/05/07 00:02:12;;;;;;;2.15;1.30;;;6.60;99.90;;;;;;2073747;28;20182;-73
2021/05/07 00:03:13;;;;;;;3.37;1.50;;;6.60;99.90;;;;;;2073870;28;20376;-73
2021/05/07 00:04:19;;;;;;;4.67;1.50;;;6.60;99.90;;;;;;2073120;28;20197;-72
2021/05/07 00:05:19;;;;;;;3.00;1.15;;;6.70;99.90;;;;;;2065709;28;20254;-73
2021/05/07 00:06:20;;;;;;;2.00;1.30;;;6.70;99.90;;;;;;2065004;28;20194;-73
2021/05/07 00:07:21;;;;;;;2.10;1.10;;;6.70;99.90;;;;;;2065204;28;20178;-73
2021/05/07 00:08:28;;;;;;;3.17;1.37;;;6.70;99.90;;;;;;2073003;28;20192;-73
2021/05/07 00:09:28;;;;;;;2.25;1.27;;;6.70;99.90;;;;;;2073178;28;20177;-73
2021/05/07 00:10:29;;;;;;;2.43;1.30;;;6.60;99.90;;;;;;2073048;28;20181;-72
2021/05/07 00:11:31;;;;;;;1.50;1.20;;;6.60;99.90;;;;;;2072833;28;20209;-72
2021/05/07 00:12:32;;;;;;;1.80;1.40;;;6.50;99.90;;;;;;2065376;28;20665;-73
2021/05/07 00:13:34;;;;;;;2.77;1.30;;;6.50;99.90;;;;;;2065433;28;20210;-73
2021/05/07 00:14:35;;;;;;;2.42;1.48;;;6.60;99.90;;;;;;2065154;28;20274;-72
2021/05/07 00:15:35;;;;;;;3.37;1.40;;;6.60;99.90;;;;;;2065065;28;20645;-72
2021/05/07 00:16:36;;;;;;;2.67;1.23;;;6.50;99.90;;;;;;2072958;28;20192;-72
2021/05/07 00:17:37;;;;;;;2.87;1.20;;;6.50;99.90;;;;;;2073163;28;20224;-73
2021/05/07 00:18:38;;;;;;;5.53;1.43;;;6.50;99.90;;;;;;2073104;28;20316;-72
2021/05/07 00:19:39;;;;;;;3.90;1.30;;;6.50;99.90;;;;;;2072943;28;20653;-72
2021/05/07 00:20:39;;;;;;;3.43;1.30;;;6.50;99.90;;;;;;2073008;28;20321;-73
2021/05/07 00:21:40;;;;;;;3.50;1.30;;;6.50;99.90;;;;;;2073366;28;20236;-72
2021/05/07 00:22:41;;;;;;;3.30;1.40;;;6.50;99.90;;;;;;2073665;28;20182;-72
2021/05/07 00:23:42;;;;;;;5.13;1.30;;;6.50;99.90;;;;;;2073166;28;20186;-72
2021/05/07 00:24:43;;;;;;;2.17;1.20;;;6.50;99.90;;;;;;2073108;28;20317;-73
2021/05/07 00:25:46;;;;;;;3.17;1.40;;;6.50;99.90;;;;;;2073717;28;20185;-73
2021/05/07 00:26:47;;;;;;;4.22;1.50;;;6.50;99.90;;;;;;2073655;28;20209;-72
2021/05/07 00:27:47;;;;;;;2.13;1.30;;;6.50;99.90;;;;;;2073560;28;20185;-73
2021/05/07 00:28:48;;;;;;;1.40;1.30;;;6.50;99.90;;;;;;2073008;28;20178;-72
2021/05/07 00:29:49;;;;;;;2.57;1.20;;;6.50;99.90;;;;;;2073056;28;20210;-72
2021/05/07 00:30:49;;;;;;;2.30;1.30;;;6.50;99.90;;;;;;2072829;28;20692;-73
2021/05/07 00:31:50;;;;;;;5.40;1.50;;;6.50;99.90;;;;;;2072854;28;20170;-72
2021/05/07 00:32:51;;;;;;;3.20;1.30;;;6.40;99.90;;;;;;2073549;28;20265;-74
2021/05/07 00:33:51;;;;;;;4.60;1.20;;;6.50;99.90;;;;;;2073111;28;20228;-73
2021/05/07 00:34:52;;;;;;;2.27;1.27;;;6.40;99.90;;;;;;2073063;28;20169;-73
2021/05/07 00:35:53;;;;;;;2.43;1.30;;;6.50;99.90;;;;;;2073038;28;20174;-72
2021/05/07 00:36:53;;;;;;;1.77;1.27;;;6.50;99.90;;;;;;2073119;28;20181;-74
2021/05/07 00:37:54;;;;;;;3.00;1.70;;;6.50;99.90;;;;;;2073444;28;20185;-72
2021/05/07 00:38:55;;;;;;;1.70;1.30;;;6.50;99.90;;;;;;2072900;28;20228;-72
2021/05/07 00:39:55;;;;;;;6.10;1.40;;;6.50;99.90;;;;;;2071976;28;20568;-72
2021/05/07 00:40:56;;;;;;;4.10;1.40;;;6.50;99.90;;;;;;2073545;28;20198;-72
2021/05/07 00:42:05;;;;;;;3.07;1.60;;;6.50;99.90;;;;;;2072679;28;20177;-72
2021/05/07 00:43:06;;;;;;;3.40;1.60;;;6.40;99.90;;;;;;2073200;28;20222;-72
2021/05/07 00:44:07;;;;;;;4.30;1.60;;;6.40;99.90;;;;;;2073351;28;20186;-73
2021/05/07 00:45:10;;;;;;;4.80;1.70;;;6.40;99.90;;;;;;2073562;28;20249;-73
2021/05/07 00:46:11;;;;;;;3.25;1.13;;;6.30;99.90;;;;;;2072778;28;20228;-73
2021/05/07 00:47:12;;;;;;;3.33;1.60;;;6.30;99.90;;;;;;2064910;28;20261;-73
2021/05/07 00:48:19;;;;;;;4.97;1.60;;;6.30;99.90;;;;;;2072892;28;20594;-72
2021/05/07 00:49:19;;;;;;;4.25;1.60;;;6.30;99.90;;;;;;2072859;28;20628;-73
2021/05/07 00:50:20;;;;;;;4.70;1.70;;;6.30;99.90;;;;;;2065096;28;20190;-73
2021/05/07 00:51:22;;;;;;;3.53;1.40;;;6.30;99.90;;;;;;2064767;28;20202;-73
2021/05/07 00:52:23;;;;;;;4.00;1.60;;;6.30;99.90;;;;;;2064907;28;20197;-73
2021/05/07 00:53:28;;;;;;;4.43;1.63;;;6.30;99.90;;;;;;2072961;28;20655;-73
2021/05/07 00:54:29;;;;;;;3.63;1.40;;;6.30;99.90;;;;;;2072700;28;20641;-72
2021/05/07 00:55:33;;;;;;;5.70;1.58;;;6.30;99.90;;;;;;2065372;28;20625;-73
2021/05/07 00:56:34;;;;;;;5.47;1.70;;;6.30;99.90;;;;;;2065097;28;20664;-74
2021/05/07 00:57:37;;;;;;;4.60;1.37;;;6.40;99.90;;;;;;2072951;28;20279;-73
2021/05/07 00:58:38;;;;;;;5.47;1.60;;;6.40;99.90;;;;;;2072871;28;20178;-73
2021/05/07 00:59:39;;;;;;;3.15;1.50;;;6.40;99.90;;;;;;2067092;28;20182;-73
2021/05/07 01:00:40;;;;;;;3.37;1.60;;;6.40;99.90;;;;;;2064620;28;20175;-72
2021/05/07 01:01:41;;;;;;;4.03;1.80;;;6.40;99.90;;;;;;2064769;28;20429;-72
2021/05/07 01:02:42;;;;;;;4.13;1.80;;;6.40;99.90;;;;;;2072986;28;20236;-73
2021/05/07 01:03:42;;;;;;;4.73;1.60;;;6.40;99.90;;;;;;2073559;28;20666;-72
2021/05/07 01:04:43;;;;;;;2.77;1.23;;;6.40;99.90;;;;;;2072840;28;20649;-72
2021/05/07 01:05:44;;;;;;;2.27;1.47;;;6.40;99.90;;;;;;2072794;28;20185;-73
2021/05/07 01:06:45;;;;;;;4.70;1.57;;;6.40;99.90;;;;;;2072799;28;20193;-72
2021/05/07 01:07:45;;;;;;;6.63;1.40;;;6.40;99.90;;;;;;2072852;28;20739;-72
2021/05/07 01:08:46;;;;;;;4.37;1.40;;;6.40;99.90;;;;;;2072817;28;20424;-72
2021/05/07 01:09:50;;;;;;;3.33;1.40;;;6.40;99.90;;;;;;2064781;28;20202;-72
2021/05/07 01:10:53;;;;;;;4.35;1.40;;;6.40;99.90;;;;;;2072568;28;20208;-73
2021/05/07 01:11:53;;;;;;;2.90;1.30;;;6.40;99.90;;;;;;2073178;28;20538;-72
2021/05/07 01:12:54;;;;;;;4.27;1.97;;;6.40;99.90;;;;;;2073363;28;20239;-73
2021/05/07 01:13:55;;;;;;;3.47;1.50;;;6.40;99.90;;;;;;2073371;28;20645;-72
2021/05/07 01:15:12;;;;;;;5.33;1.70;;;6.40;99.90;;;;;;2072664;28;20716;-72
2021/05/07 01:16:13;;;;;;;4.95;1.48;;;6.40;99.90;;;;;;2066693;28;20213;-72
2021/05/07 01:17:13;;;;;;;4.27;1.60;;;6.40;99.90;;;;;;2072693;28;20189;-73
2021/05/07 01:18:14;;;;;;;4.17;1.47;;;6.40;99.90;;;;;;2072689;28;20182;-72
2021/05/07 01:19:15;;;;;;;4.40;1.80;;;6.40;99.90;;;;;;2064576;28;20254;-73
2021/05/07 01:20:30;;;;;;;4.53;1.87;;;6.40;99.90;;;;;;2072655;28;20267;-72
2021/05/07 01:21:33;;;;;;;5.85;1.65;;;6.40;99.90;;;;;;2072963;28;20177;-73
2021/05/07 01:22:36;;;;;;;6.00;1.90;;;6.40;99.90;;;;;;2072621;28;20182;-73
2021/05/07 01:23:37;;;;;;;4.28;1.80;;;6.40;99.90;;;;;;2072456;28;20189;-73
2021/05/07 01:24:39;;;;;;;4.17;1.90;;;6.40;99.90;;;;;;2073245;28;20186;-73
2021/05/07 01:25:44;;;;;;;3.83;1.83;;;6.40;99.90;;;;;;2072566;28;20181;-73
2021/05/07 01:26:45;;;;;;;4.28;1.50;;;6.40;99.90;;;;;;2065228;28;20246;-72
2021/05/07 01:27:51;;;;;;;3.53;1.50;;;6.40;99.90;;;;;;2064354;28;20197;-72
2021/05/07 01:28:52;;;;;;;3.67;1.60;;;6.40;99.90;;;;;;2065318;28;20245;-73
2021/05/07 01:29:53;;;;;;;4.97;1.50;;;6.40;99.90;;;;;;2072453;28;20189;-73
2021/05/07 01:30:53;;;;;;;7.00;1.80;;;6.40;99.90;;;;;;2080438;28;20286;-72
2021/05/07 01:31:56;;;;;;;3.50;1.60;;;6.40;99.90;;;;;;2072324;28;20193;-72
2021/05/07 01:32:57;;;;;;;6.40;1.70;;;6.40;99.90;;;;;;2072637;28;20185;-72
2021/05/07 01:33:58;;;;;;;4.70;1.88;;;6.40;99.90;;;;;;2072696;28;20238;-73
2021/05/07 01:34:59;;;;;;;2.30;1.40;;;6.40;99.90;;;;;;2073260;28;20174;-72
2021/05/07 01:35:59;;;;;;;4.17;1.70;;;6.40;99.90;;;;;;2073228;28;20712;-72
2021/05/07 01:37:00;;;;;;;4.37;1.50;;;6.40;99.90;;;;;;2073262;28;20192;-72
2021/05/07 01:38:08;;;;;;;5.37;1.50;;;6.40;99.90;;;;;;2073027;28;20182;-73
2021/05/07 01:39:08;;;;;;;3.63;1.52;;;6.30;99.90;;;;;;2073198;28;20545;-72
2021/05/07 01:40:21;;;;;;;3.50;1.77;;;6.30;99.90;;;;;;2072376;28;20330;-72
2021/05/07 01:41:22;;;;;;;5.63;1.77;;;6.20;99.90;;;;;;2057823;28;20194;-72
2021/05/07 01:42:23;;;;;;;4.03;1.80;;;6.20;99.90;;;;;;2064544;28;20580;-73
2021/05/07 01:43:24;;;;;;;7.03;1.70;;;6.20;99.90;;;;;;2073060;28;20248;-73
2021/05/07 01:44:24;;;;;;;4.33;1.53;;;6.30;99.90;;;;;;2073171;28;20260;-72
2021/05/07 01:45:28;;;;;;;5.70;2.10;;;6.30;99.90;;;;;;2073217;28;20174;-73
2021/05/07 01:46:29;;;;;;;4.35;1.67;;;6.20;99.90;;;;;;2072607;28;20181;-73
2021/05/07 01:47:29;;;;;;;5.33;1.70;;;6.30;99.90;;;;;;2072623;28;20579;-72
2021/05/07 01:48:30;;;;;;;2.77;1.70;;;6.30;99.90;;;;;;2072599;28;20544;-73
2021/05/07 01:49:31;;;;;;;2.37;1.40;;;6.30;99.90;;;;;;2056294;28;20286;-72
2021/05/07 01:50:34;;;;;;;5.27;2.00;;;6.20;99.90;;;;;;2056335;28;20171;-72
2021/05/07 01:51:35;;;;;;;3.58;1.50;;;6.20;99.90;;;;;;2072457;28;20189;-74
2021/05/07 01:52:36;;;;;;;3.20;1.70;;;6.20;99.90;;;;;;2073228;28;20799;-73
2021/05/07 01:53:37;;;;;;;1.97;1.40;;;6.30;99.90;;;;;;2072656;28;20181;-72
2021/05/07 01:54:37;;;;;;;4.40;1.40;;;6.20;99.90;;;;;;2064318;28;20917;-73
2021/05/07 01:55:43;;;;;;;2.20;1.43;;;6.20;99.90;;;;;;2072561;28;20189;-73
2021/05/07 01:56:44;;;;;;;5.53;1.50;;;6.10;99.90;;;;;;2072643;28;20178;-72
2021/05/07 01:57:45;;;;;;;1.67;1.23;;;6.10;99.90;;;;;;2064405;28;20174;-71
2021/05/07 01:58:46;;;;;;;3.50;1.35;;;6.10;99.90;;;;;;2072456;28;20181;-73
2021/05/07 01:59:47;;;;;;;5.10;1.20;;;6.10;99.90;;;;;;2072921;28;20173;-72
2021/05/07 02:00:48;;;;;;;4.13;1.30;;;6.00;99.90;;;;;;2073069;28;20449;-72
2021/05/07 02:01:48;;;;;;;3.53;1.40;;;6.00;99.90;;;;;;2072927;28;20193;-73
2021/05/07 02:02:50;;;;;;;1.93;1.30;;;6.00;99.90;;;;;;2073179;28;20531;-72
2021/05/07 02:03:51;;;;;;;4.82;1.35;;;6.00;99.90;;;;;;2072620;28;20231;-72
2021/05/07 02:04:51;;;;;;;1.77;1.07;;;6.00;99.90;;;;;;2056390;28;20194;-72
2021/05/07 02:05:52;;;;;;;1.70;1.10;;;5.90;99.90;;;;;;2056215;28;20175;-71
2021/05/07 02:06:53;;;;;;;2.97;1.00;;;5.90;99.90;;;;;;2072459;28;20177;-72
2021/05/07 02:07:54;;;;;;;1.03;0.93;;;5.80;99.90;;;;;;2072901;28;20788;-72
2021/05/07 02:08:55;;;;;;;2.13;1.00;;;5.80;99.90;;;;;;2064247;28;20175;-71
2021/05/07 02:09:56;;;;;;;1.70;0.90;;;5.80;99.90;;;;;;2064401;28;20204;-71
2021/05/07 02:10:57;;;;;;;1.07;0.90;;;5.80;99.90;;;;;;2064082;28;20206;-72
2021/05/07 02:11:57;;;;;;;1.83;0.73;;;5.80;99.90;;;;;;2072303;28;20829;-71
2021/05/07 02:13:02;;;;;;;0.87;0.80;;;5.80;99.90;;;;;;2072317;28;20174;-72
2021/05/07 02:14:03;;;;;;;1.63;0.68;;;5.80;99.90;;;;;;2065875;28;20240;-72
2021/05/07 02:15:12;;;;;;;0.93;0.60;;;5.80;99.90;;;;;;2072321;28;20676;-72
2021/05/07 02:16:13;;;;;;;1.50;0.63;;;5.80;99.90;;;;;;2073293;28;20173;-72
2021/05/07 02:17:14;;;;;;;0.98;0.60;;;5.70;99.90;;;;;;2080582;28;20203;-72
2021/05/07 02:18:15;;;;;;;0.70;0.70;;;5.70;99.90;;;;;;2080419;28;20648;-73
2021/05/07 02:19:16;;;;;;;0.40;0.40;;;5.80;99.90;;;;;;2080615;28;20633;-72
2021/05/07 02:20:19;;;;;;;0.60;0.60;;;5.80;99.90;;;;;;2081103;28;20296;-73
2021/05/07 02:21:19;;;;;;;0.50;0.50;;;5.80;99.90;;;;;;2080169;28;20211;-72
2021/05/07 02:22:20;;;;;;;0.87;0.60;;;5.80;99.90;;;;;;2072288;28;20608;-72
2021/05/07 02:23:22;;;;;;;0.60;0.60;;;5.80;99.90;;;;;;2072538;28;20178;-72
2021/05/07 02:24:23;;;;;;;0.40;0.40;;;5.80;99.90;;;;;;2080537;28;20242;-72
2021/05/07 02:25:27;;;;;;;2.83;0.70;;;5.80;99.90;;;;;;2080581;28;20765;-73
2021/05/07 02:26:27;;;;;;;0.82;0.60;;;5.80;99.90;;;;;;2072704;28;20181;-72
2021/05/07 02:27:28;;;;;;;1.50;0.60;;;5.80;99.90;;;;;;2080496;28;20250;-73
2021/05/07 02:28:29;;;;;;;0.70;0.57;;;5.70;99.90;;;;;;2080402;28;20222;-71
2021/05/07 02:29:30;;;;;;;0.87;0.50;;;5.80;99.90;;;;;;2080577;28;20741;-72
2021/05/07 02:30:32;;;;;;;1.08;0.60;;;5.80;99.90;;;;;;2080448;28;20184;-72
2021/05/07 02:31:32;;;;;;;0.80;0.55;;;5.80;99.90;;;;;;2072398;28;20192;-73
2021/05/07 02:32:33;;;;;;;0.57;0.50;;;5.80;99.90;;;;;;2080397;28;20181;-72
2021/05/07 02:33:38;;;;;;;0.50;0.50;;;5.80;99.90;;;;;;2088842;28;20271;-72
2021/05/07 02:34:38;;;;;;;0.68;0.68;;;5.80;99.90;;;;;;2080603;28;20185;-74
2021/05/07 02:35:39;;;;;;;0.93;0.77;;;5.80;99.90;;;;;;2072834;28;20272;-72
2021/05/07 02:36:41;;;;;;;0.67;0.67;;;5.80;99.90;;;;;;2080524;28;20207;-72
2021/05/07 02:37:42;;;;;;;0.70;0.52;;;5.80;99.90;;;;;;2081008;28;20181;-72
2021/05/07 02:38:42;;;;;;;0.70;0.50;;;5.80;99.90;;;;;;2080987;28;20668;-74
2021/05/07 02:39:44;;;;;;;0.50;0.50;;;5.80;99.90;;;;;;2081108;28;20188;-72
2021/05/07 02:40:44;;;;;;;1.40;0.60;;;5.80;99.90;;;;;;2081119;28;20204;-72
2021/05/07 02:41:46;;;;;;;1.53;0.70;;;5.80;99.90;;;;;;2080992;28;20226;-73
2021/05/07 02:42:47;;;;;;;0.70;0.52;;;5.80;99.90;;;;;;2081099;28;20169;-74
2021/05/07 02:43:47;;;;;;;0.87;0.60;;;5.80;99.90;;;;;;2081073;28;20181;-72
2021/05/07 02:44:48;;;;;;;0.93;0.57;;;5.80;99.90;;;;;;2081092;28;20173;-72
2021/05/07 02:45:49;;;;;;;1.60;0.70;;;5.80;99.90;;;;;;2088699;28;20593;-72
2021/05/07 02:46:49;;;;;;;0.50;0.50;;;5.70;99.90;;;;;;2088787;28;20194;-72
2021/05/07 02:47:50;;;;;;;1.20;0.60;;;5.80;99.90;;;;;;2081219;28;20172;-72
2021/05/07 02:48:51;;;;;;;0.90;0.90;;;5.80;99.90;;;;;;2080949;28;20177;-73
2021/05/07 02:49:52;;;;;;;0.60;0.60;;;5.80;99.90;;;;;;2081058;28;20546;-72
2021/05/07 02:50:53;;;;;;;1.40;0.70;;;5.90;99.90;;;;;;2080963;28;20773;-72
2021/05/07 02:51:53;;;;;;;1.30;0.70;;;5.90;99.90;;;;;;2080848;28;20238;-71
2021/05/07 02:52:54;;;;;;;1.30;1.00;;;6.00;99.90;;;;;;2080470;28;20177;-72
2021/05/07 02:53:55;;;;;;;1.10;1.00;;;6.00;99.90;;;;;;2072170;28;20645;-72
2021/05/07 02:54:55;;;;;;;2.43;1.00;;;6.00;99.90;;;;;;2080364;28;20185;-72
2021/05/07 02:55:56;;;;;;;1.33;0.80;;;6.00;99.90;;;;;;2081029;28;20208;-72
2021/05/07 02:56:58;;;;;;;2.07;1.00;;;6.00;99.90;;;;;;2081036;28;20672;-72
2021/05/07 02:57:59;;;;;;;1.33;0.90;;;6.00;99.90;;;;;;2080404;28;20191;-73
2021/05/07 02:58:59;;;;;;;2.10;1.00;;;6.00;99.90;;;;;;2080372;28;20658;-72
2021/05/07 03:00:00;;;;;;;3.50;0.97;;;6.00;99.90;;;;;;2080769;28;20232;-72
2021/05/07 03:01:01;;;;;;;1.33;1.23;;;6.00;99.90;;;;;;2080348;28;20193;-73
2021/05/07 03:02:02;;;;;;;2.40;1.00;;;6.00;99.90;;;;;;2074858;28;20670;-72
2021/05/07 03:03:02;;;;;;;1.03;0.90;;;6.00;99.90;;;;;;2072415;28;20268;-72
2021/05/07 03:04:03;;;;;;;1.23;0.80;;;6.00;99.90;;;;;;2072733;28;20177;-72
2021/05/07 03:05:05;;;;;;;1.98;1.20;;;6.00;99.90;;;;;;2072622;28;20518;-72
2021/05/07 03:06:06;;;;;;;2.17;1.23;;;6.00;99.90;;;;;;2072638;28;20661;-72
2021/05/07 03:07:07;;;;;;;1.73;1.10;;;6.00;99.90;;;;;;2072831;28;20186;-73
2021/05/07 03:08:08;;;;;;;1.67;1.20;;;6.00;99.90;;;;;;2072234;28;20189;-73
2021/05/07 03:09:08;;;;;;;2.03;1.20;;;6.00;99.90;;;;;;2072397;28;20189;-72
2021/05/07 03:10:10;;;;;;;1.60;1.17;;;6.10;99.90;;;;;;2072656;28;20215;-73
2021/05/07 03:11:11;;;;;;;1.45;1.02;;;6.10;99.90;;;;;;2072026;28;20213;-72
2021/05/07 03:12:12;;;;;;;0.85;0.85;;;6.10;99.90;;;;;;2072076;28;20185;-72
2021/05/07 03:13:12;;;;;;;1.33;1.10;;;6.10;99.90;;;;;;2072742;28;20201;-72
2021/05/07 03:14:13;;;;;;;2.93;1.30;;;6.00;99.90;;;;;;2072787;28;20193;-72
2021/05/07 03:15:15;;;;;;;3.63;1.50;;;6.00;99.90;;;;;;2072766;28;20295;-72
2021/05/07 03:16:16;;;;;;;1.88;1.00;;;6.00;99.90;;;;;;2072090;28;20182;-72
2021/05/07 03:17:17;;;;;;;1.43;1.13;;;6.00;99.90;;;;;;2072185;28;20280;-72
2021/05/07 03:18:21;;;;;;;1.73;1.10;;;6.00;99.90;;;;;;2072735;28;20630;-72
2021/05/07 03:19:22;;;;;;;2.15;1.20;;;6.00;99.90;;;;;;2072720;28;20240;-73
2021/05/07 03:20:23;;;;;;;2.37;1.50;;;6.00;99.90;;;;;;2072530;28;20267;-73
2021/05/07 03:21:24;;;;;;;2.70;1.33;;;6.10;99.90;;;;;;2072442;28;20601;-72
2021/05/07 03:22:25;;;;;;;2.63;1.27;;;6.10;99.90;;;;;;2072755;28;20173;-73
2021/05/07 03:23:26;;;;;;;1.37;1.10;;;6.10;99.90;;;;;;2072864;28;20236;-73
2021/05/07 03:24:27;;;;;;;2.60;1.40;;;6.10;99.90;;;;;;2072718;28;20235;-73
2021/05/07 03:25:28;;;;;;;1.30;1.20;;;6.10;99.90;;;;;;2072115;28;20260;-72
2021/05/07 03:26:28;;;;;;;1.83;1.20;;;6.10;99.90;;;;;;2071988;28;20708;-73
2021/05/07 03:27:29;;;;;;;2.23;1.30;;;6.10;99.90;;;;;;2072640;28;20177;-72
2021/05/07 03:28:30;;;;;;;2.37;1.43;;;6.10;99.90;;;;;;2072676;28;20185;-73
2021/05/07 03:29:31;;;;;;;2.77;1.10;;;6.10;99.90;;;;;;2072689;28;20185;-72
2021/05/07 03:30:33;;;;;;;4.37;2.00;;;6.10;99.90;;;;;;2072471;28;20320;-72
2021/05/07 03:31:35;;;;;;;5.13;1.48;;;6.20;99.90;;;;;;2079979;28;20180;-72
2021/05/07 03:32:35;;;;;;;1.35;0.90;;;6.20;99.90;;;;;;2063832;28;20593;-72
2021/05/07 03:33:38;;;;;;;1.50;1.20;;;6.10;99.90;;;;;;2064030;28;20182;-73
2021/05/07 03:34:38;;;;;;;2.47;1.48;;;6.20;99.90;;;;;;2072178;28;20217;-73
2021/05/07 03:35:39;;;;;;;3.33;1.30;;;6.20;99.90;;;;;;2072330;28;20189;-72
2021/05/07 03:36:40;;;;;;;1.50;1.20;;;6.20;99.90;;;;;;2072655;28;20189;-71
2021/05/07 03:37:40;;;;;;;1.47;1.20;;;6.20;99.90;;;;;;2072595;28;20750;-71
2021/05/07 03:38:41;;;;;;;1.70;1.20;;;6.10;99.90;;;;;;2072560;28;20196;-72
2021/05/07 03:39:44;;;;;;;3.92;1.63;;;6.00;99.90;;;;;;2071864;28;20193;-72
2021/05/07 03:40:45;;;;;;;2.78;2.10;;;6.00;99.90;;;;;;2063787;28;20213;-71
2021/05/07 03:41:45;;;;;;;3.40;2.00;;;6.00;99.90;;;;;;2063850;28;20205;-72
2021/05/07 03:42:47;;;;;;;3.17;2.00;;;6.00;99.90;;;;;;2071761;28;20208;-73
2021/05/07 03:43:47;;;;;;;3.08;1.80;;;5.90;99.90;;;;;;2063796;28;20175;-75
2021/05/07 03:44:48;;;;;;;1.73;1.60;;;5.90;99.90;;;;;;2071920;28;20268;-72
2021/05/07 03:45:49;;;;;;;2.37;1.60;;;5.90;99.90;;;;;;2071775;28;20274;-71
2021/05/07 03:46:49;;;;;;;2.20;1.20;;;5.90;99.90;;;;;;2071889;28;20257;-72
2021/05/07 03:47:50;;;;;;;2.33;1.30;;;5.90;99.90;;;;;;2071676;28;20656;-71
2021/05/07 03:48:51;;;;;;;1.30;1.20;;;5.80;99.90;;;;;;2072115;28;20239;-72
2021/05/07 03:49:52;;;;;;;2.70;1.67;;;5.90;99.90;;;;;;2072437;28;20545;-72
2021/05/07 03:50:54;;;;;;;3.30;1.50;;;5.90;99.90;;;;;;2072450;28;20207;-72
2021/05/07 03:51:55;;;;;;;3.25;1.60;;;5.80;99.90;;;;;;2071637;28;20724;-73
2021/05/07 03:52:56;;;;;;;2.23;1.10;;;5.90;99.90;;;;;;2071928;28;20174;-72
2021/05/07 03:53:56;;;;;;;2.77;1.30;;;5.90;99.90;;;;;;2072421;28;20823;-72
2021/05/07 03:54:57;;;;;;;1.90;1.20;;;5.80;99.90;;;;;;2072741;28;20257;-72
2021/05/07 03:55:58;;;;;;;2.50;0.90;;;5.70;99.90;;;;;;2072429;28;20174;-71
2021/05/07 03:56:58;;;;;;;2.73;1.30;;;5.70;99.90;;;;;;2072456;28;20654;-71
2021/05/07 03:58:00;;;;;;;3.43;1.80;;;5.60;99.90;;;;;;2072392;28;20173;-72
2021/05/07 03:59:01;;;;;;;1.85;1.42;;;5.70;99.90;;;;;;2072316;28;20169;-72
2021/05/07 04:00:10;;;;;;;4.67;1.70;;;5.70;99.90;;;;;;2072295;28;20201;-72
2021/05/07 04:01:11;;;;;;;3.50;1.20;;;5.70;99.90;;;;;;2071805;28;20217;-72
2021/05/07 04:02:12;;;;;;;2.53;1.30;;;5.70;99.90;;;;;;2063594;28;20196;-71
2021/05/07 04:03:12;;;;;;;1.17;1.00;;;5.70;99.90;;;;;;2071822;28;20201;-71
2021/05/07 04:04:14;;;;;;;3.13;1.53;;;5.70;99.90;;;;;;2072301;28;20173;-72
2021/05/07 04:05:14;;;;;;;1.73;1.55;;;5.70;99.90;;;;;;2071872;28;20193;-71
2021/05/07 04:06:18;;;;;;;2.60;1.80;;;5.70;99.90;;;;;;2063629;28;20306;-72
2021/05/07 04:07:19;;;;;;;3.50;1.80;;;5.70;99.90;;;;;;2071805;28;20189;-71
2021/05/07 04:08:26;;;;;;;3.92;2.20;;;5.60;99.90;;;;;;2072422;28;20600;-72
2021/05/07 04:09:34;;;;;;;3.78;2.20;;;5.60;99.90;;;;;;2072469;28;20174;-72
2021/05/07 04:10:40;;;;;;;2.35;1.55;;;5.60;99.90;;;;;;2072488;28;20167;-72
2021/05/07 04:11:54;;;;;;;3.63;1.70;;;5.60;99.90;;;;;;2071709;28;20289;-71
2021/05/07 04:13:56;;;;;;;2.60;1.27;;;5.60;99.90;;;;;;2073761;28;20684;-72
2021/05/07 04:14:56;;;;;;;1.10;0.93;;;5.60;99.90;;;;;;2081375;28;20548;-72
2021/05/07 04:15:57;;;;;;;1.30;1.10;;;5.60;99.90;;;;;;2074585;28;20174;-71
2021/05/07 04:16:59;;;;;;;2.55;0.90;;;5.60;99.90;;;;;;2066360;28;20627;-71
2021/05/07 04:17:59;;;;;;;1.50;1.10;;;5.60;99.90;;;;;;2066357;28;20325;-73
2021/05/07 04:19:00;;;;;;;1.30;1.00;;;5.60;99.90;;;;;;2074566;28;20170;-72
2021/05/07 04:20:01;;;;;;;3.23;1.13;;;5.60;99.90;;;;;;2075129;28;20294;-74
2021/05/07 04:21:03;;;;;;;1.20;1.10;;;5.60;99.90;;;;;;2074945;28;20228;-73
2021/05/07 04:22:03;;;;;;;2.35;1.50;;;5.60;99.90;;;;;;2074384;28;20208;-74
2021/05/07 04:23:04;;;;;;;3.20;1.30;;;5.60;99.90;;;;;;2074604;28;20654;-73
2021/05/07 04:24:05;;;;;;;1.40;0.80;;;5.70;99.90;;;;;;2082594;28;20826;-71
2021/05/07 04:25:10;;;;;;;1.00;0.82;;;5.60;99.90;;;;;;2066390;28;20178;-74
2021/05/07 04:26:11;;;;;;;1.27;0.90;;;5.60;99.90;;;;;;2066485;28;20686;-73
2021/05/07 04:27:12;;;;;;;1.87;0.97;;;5.60;99.90;;;;;;2074433;28;20180;-73
2021/05/07 04:28:13;;;;;;;1.33;0.80;;;5.60;99.90;;;;;;2075311;28;20190;-74
2021/05/07 04:29:14;;;;;;;1.43;0.90;;;5.60;99.90;;;;;;2075218;28;20192;-74
2021/05/07 04:30:15;;;;;;;2.83;1.23;;;5.60;99.90;;;;;;2075627;28;20464;-73
2021/05/07 04:31:16;;;;;;;5.05;1.50;;;5.70;99.90;;;;;;2075048;28;20221;-74
2021/05/07 04:32:16;;;;;;;3.37;1.40;;;5.70;99.90;;;;;;2075824;28;20181;-73
2021/05/07 04:33:17;;;;;;;4.53;2.40;;;5.70;99.90;;;;;;2075802;28;20185;-74
2021/05/07 04:34:18;;;;;;;5.17;2.30;;;5.70;99.90;;;;;;2075558;28;20208;-72
2021/05/07 04:35:19;;;;;;;6.72;2.92;;;5.70;99.90;;;;;;2075509;28;20566;-73
2021/05/07 04:36:20;;;;;;;3.33;1.30;;;5.70;99.90;;;;;;2075549;28;20198;-73
2021/05/07 04:37:20;;;;;;;2.57;1.20;;;5.80;99.90;;;;;;2075450;28;20186;-73
2021/05/07 04:38:21;;;;;;;2.40;0.90;;;5.80;99.90;;;;;;2083086;28;20188;-73
2021/05/07 04:39:22;;;;;;;2.42;0.75;;;5.80;99.90;;;;;;2083127;28;20189;-73
2021/05/07 04:40:23;;;;;;;3.93;1.20;;;5.80;99.90;;;;;;2075465;28;20202;-73
2021/05/07 04:41:24;;;;;;;3.05;0.90;;;5.80;99.90;;;;;;2074241;28;20174;-75
2021/05/07 04:42:25;;;;;;;1.83;0.75;;;5.80;99.90;;;;;;2066516;28;20186;-73
2021/05/07 04:43:26;;;;;;;1.03;0.80;;;5.80;99.90;;;;;;2074540;28;20185;-74
2021/05/07 04:44:26;;;;;;;0.97;0.70;;;5.80;99.90;;;;;;2075199;28;20180;-73
2021/05/07 04:45:31;;;;;;;1.57;0.93;;;5.80;99.90;;;;;;2075205;28;20556;-74
2021/05/07 04:46:32;;;;;;;0.75;0.55;;;5.90;99.90;;;;;;2074723;28;20204;-73
2021/05/07 04:47:33;;;;;;;0.57;0.40;;;5.90;99.90;;;;;;2066343;28;20234;-74
2021/05/07 04:48:34;;;;;;;1.57;0.70;;;6.00;99.90;;;;;;2074687;28;20181;-74
2021/05/07 04:49:35;;;;;;;0.97;0.60;;;5.90;99.90;;;;;;2075115;28;20666;-73
2021/05/07 04:50:35;;;;;;;1.70;0.67;;;5.90;99.90;;;;;;2075124;28;20244;-74
2021/05/07 04:51:36;;;;;;;0.57;0.40;;;5.90;99.90;;;;;;2075015;28;20182;-73
2021/05/07 04:52:37;;;;;;;0.30;0.30;;;5.90;99.90;;;;;;2075166;28;20178;-74
2021/05/07 04:53:37;;;;;;;0.25;0.25;;;5.80;99.90;;;;;;2075140;28;20674;-72
2021/05/07 04:54:38;;;;;;;2.20;0.60;;;5.70;99.90;;;;;;2074513;28;20194;-73
2021/05/07 04:55:39;;;;;;;0.23;0.23;;;5.50;99.90;;;;;;2066460;28;20257;-73
2021/05/07 04:56:40;;;;;;;1.00;0.40;;;5.30;99.90;;;;;;2066350;28;20212;-73
2021/05/07 04:57:41;;;;;;;0.23;0.23;;;5.10;99.90;;;;;;2066466;28;20196;-74
2021/05/07 04:58:42;;;;;;;0.20;0.20;;;5.00;99.90;;;;;;2074337;28;20186;-74
2021/05/07 04:59:42;;;;;;;0.23;0.17;;;4.80;99.90;;;;;;2074997;28;20561;-73
2021/05/07 05:00:43;;;;;;;0.20;0.20;;;4.70;99.90;;;;;;2074997;28;20220;-73
2021/05/07 05:01:44;;;;;;;2.27;0.30;;;4.60;99.90;;;;;;2074887;28;20176;-73
2021/05/07 05:02:44;;;;;;;0.93;0.30;;;4.50;99.90;;;;;;2074016;28;20640;-72
2021/05/07 05:03:45;;;;;;;0.30;0.30;;;4.40;99.90;;;;;;2075509;28;20180;-73
2021/05/07 05:04:46;;;;;;;0.50;0.50;;;4.40;99.90;;;;;;2074068;28;20184;-73
2021/05/07 05:05:46;;;;;;;1.23;0.20;;;4.30;99.90;;;;;;2075110;28;20686;-73
2021/05/07 05:06:47;;;;;;;2.53;0.70;;;4.20;99.90;;;;;;2075062;28;20753;-73
2021/05/07 05:07:54;;;;;;;0.67;0.30;;;4.20;99.90;;;;;;2074858;28;20239;-74
2021/05/07 05:08:55;;;;;;;0.20;0.20;;;4.20;99.90;;;;;;2074155;28;20735;-73
2021/05/07 05:09:56;;;;;;;0.30;0.30;;;4.10;99.90;;;;;;2074344;28;20179;-73
2021/05/07 05:10:58;;;;;;;0.20;0.20;;;4.10;99.90;;;;;;2074801;28;20195;-73
2021/05/07 05:11:58;;;;;;;0.32;0.32;;;4.10;99.90;;;;;;2074695;28;20189;-72
2021/05/07 05:12:59;;;;;;;0.40;0.40;;;4.10;99.90;;;;;;2074194;28;20674;-73
2021/05/07 05:14:00;;;;;;;0.40;0.40;;;4.00;99.90;;;;;;2074243;28;20554;-74
2021/05/07 05:15:01;;;;;;;1.17;0.80;;;4.00;99.90;;;;;;2074090;28;20635;-73
2021/05/07 05:16:02;;;;;;;2.23;1.70;;;4.00;99.90;;;;;;2074403;28;20176;-73
2021/05/07 05:17:03;;;;;;;1.93;1.53;;;4.00;99.90;;;;;;2065182;28;20254;-72
2021/05/07 05:18:04;;;;;;;1.07;0.83;;;4.00;99.90;;;;;;2065224;28;20180;-72
2021/05/07 05:19:04;;;;;;;0.60;0.60;;;4.00;99.90;;;;;;2073819;28;20192;-73
2021/05/07 05:20:07;;;;;;;0.70;0.70;;;4.10;99.90;;;;;;2074505;28;20215;-73
2021/05/07 05:21:09;;;;;;;0.55;0.50;;;4.10;99.90;;;;;;2074760;28;20306;-73
2021/05/07 05:22:10;;;;;;;0.68;0.50;;;4.10;99.90;;;;;;2074062;28;20363;-74
2021/05/07 05:23:10;;;;;;;0.60;0.60;;;4.10;99.90;;;;;;2074372;28;20183;-72
2021/05/07 05:24:11;;;;;;;0.50;0.50;;;4.10;99.90;;;;;;2075022;28;20193;-74
2021/05/07 05:25:12;;;;;;;0.30;0.30;;;4.10;99.90;;;;;;2074841;28;20179;-74